Portada
METAR-TAF:

METAR-TAF

Aeroports :

Schwäbisch Hall, Alemanya

latitud: 49-07-06N, longitud: 9-47-02E, altitud: 398 m

Observació

L'informe es va fer fa 37 minuts, a les 18:20 UTC
Vent 13 kt del Nord/Nord-Est
Temperatura 3°C
Humitat 87%
Pressió 1022 hPa
Visibilitat 10 km o més

METAR: EDTY 291820Z AUTO 02013KT 9999 // FEW017/// BKN035/// OVC043/// 03/01 Q1022

Hora: 20:57 (18:57 UTC)

Pronòstic

L'informe es va fer fa 4 hores i 57 minuts, a les 14:00 UTC
Pronòstic vàlid del 29 a les 15 UTC al 29 a les 24 UTC
Vent 10 kt del Nord
Visibilitat 10 km o més
Núvols disperses a una alçada de 1200 ft
Cel cobert a una alçada de 2000 ft
Probabilitat 30% :
Temporalment
l' 29 a les 15 UTC al 29 a les 22 UTC
Visibilitat: 2500 m
Cel ennuvolat a una alçada de 1000 ft
pluja, neu

TAF: EDTY 291400Z 2915/2924 35010KT 9999 SCT012 OVC020 PROB30 TEMPO 2915/2922 2500 -RASN BKN010

Observacions i pronòstics meteorològics de més de 4000 aeroports (METAR i TAF).

Les estacions disponibles són els punts grocs i vermells al mapa.

Posi el ratolí al punt desitjat per veure el nom de l'estació.

Feu clic per veure les observacions i els pronòstics meteorològics.

Per canviar el mapa: feu clic els botons verds amb una creu de color negre per apropar; al botó verd amb un guió per allunyar la imatge; o en les fletxes verdes per a mapes adjacents.


METAR-TAF: